sensor_id;sensor_type;location;lat;lon;timestamp;P1;durP1;ratioP1;P2;durP2;ratioP2
52208;SDS011;38507;53.132;6.394;2022-12-08T00:00:51;7.38;;;0.80;;
52208;SDS011;38507;53.132;6.394;2022-12-08T00:03:17;4.13;;;0.73;;
52208;SDS011;38507;53.132;6.394;2022-12-08T00:05:43;3.83;;;1.02;;
52208;SDS011;38507;53.132;6.394;2022-12-08T00:08:33;4.90;;;1.08;;
52208;SDS011;38507;53.132;6.394;2022-12-08T00:11:18;7.80;;;1.08;;
52208;SDS011;38507;53.132;6.394;2022-12-08T00:13:44;7.88;;;0.82;;
52208;SDS011;38507;53.132;6.394;2022-12-08T00:16:10;9.00;;;1.33;;
52208;SDS011;38507;53.132;6.394;2022-12-08T00:18:36;8.25;;;1.08;;
52208;SDS011;38507;53.132;6.394;2022-12-08T00:21:01;5.68;;;1.10;;
52208;SDS011;38507;53.132;6.394;2022-12-08T00:23:27;7.70;;;0.82;;
52208;SDS011;38507;53.132;6.394;2022-12-08T00:25:53;5.53;;;0.93;;
52208;SDS011;38507;53.132;6.394;2022-12-08T00:28:19;7.10;;;1.02;;
52208;SDS011;38507;53.132;6.394;2022-12-08T00:30:44;9.77;;;1.02;;
52208;SDS011;38507;53.132;6.394;2022-12-08T00:33:10;10.20;;;1.50;;
52208;SDS011;38507;53.132;6.394;2022-12-08T00:35:36;3.10;;;1.02;;
52208;SDS011;38507;53.132;6.394;2022-12-08T00:38:02;7.88;;;1.13;;
52208;SDS011;38507;53.132;6.394;2022-12-08T00:40:28;7.50;;;1.00;;
52208;SDS011;38507;53.132;6.394;2022-12-08T00:42:54;5.25;;;1.30;;
52208;SDS011;38507;53.132;6.394;2022-12-08T00:45:20;6.18;;;2.17;;
52208;SDS011;38507;53.132;6.394;2022-12-08T00:47:45;7.07;;;1.05;;
52208;SDS011;38507;53.132;6.394;2022-12-08T00:50:11;4.35;;;1.27;;
52208;SDS011;38507;53.132;6.394;2022-12-08T00:52:37;3.10;;;0.88;;
52208;SDS011;38507;53.132;6.394;2022-12-08T00:55:03;7.50;;;1.25;;
52208;SDS011;38507;53.132;6.394;2022-12-08T00:57:29;7.38;;;1.15;;
52208;SDS011;38507;53.132;6.394;2022-12-08T00:59:54;6.40;;;1.30;;
52208;SDS011;38507;53.132;6.394;2022-12-08T01:02:21;4.30;;;1.52;;
52208;SDS011;38507;53.132;6.394;2022-12-08T01:04:47;10.43;;;1.55;;
52208;SDS011;38507;53.132;6.394;2022-12-08T01:07:13;8.57;;;2.03;;
52208;SDS011;38507;53.132;6.394;2022-12-08T01:09:38;4.97;;;1.30;;
52208;SDS011;38507;53.132;6.394;2022-12-08T01:12:04;3.53;;;1.23;;
52208;SDS011;38507;53.132;6.394;2022-12-08T01:14:30;3.40;;;1.13;;
52208;SDS011;38507;53.132;6.394;2022-12-08T01:16:56;6.78;;;1.40;;
52208;SDS011;38507;53.132;6.394;2022-12-08T01:19:21;5.22;;;1.15;;
52208;SDS011;38507;53.132;6.394;2022-12-08T01:21:47;4.75;;;1.10;;
52208;SDS011;38507;53.132;6.394;2022-12-08T01:24:14;7.82;;;0.90;;
52208;SDS011;38507;53.132;6.394;2022-12-08T01:26:42;5.53;;;0.73;;
52208;SDS011;38507;53.132;6.394;2022-12-08T01:29:08;4.47;;;0.82;;
52208;SDS011;38507;53.132;6.394;2022-12-08T01:31:34;4.35;;;0.90;;
52208;SDS011;38507;53.132;6.394;2022-12-08T01:34:00;3.75;;;0.90;;
52208;SDS011;38507;53.132;6.394;2022-12-08T01:36:26;5.03;;;1.15;;
52208;SDS011;38507;53.132;6.394;2022-12-08T01:38:55;3.92;;;1.10;;
52208;SDS011;38507;53.132;6.394;2022-12-08T01:41:22;3.58;;;0.80;;
52208;SDS011;38507;53.132;6.394;2022-12-08T01:46:40;4.65;;;0.65;;
52208;SDS011;38507;53.132;6.394;2022-12-08T01:54:12;3.40;;;0.50;;
52208;SDS011;38507;53.132;6.394;2022-12-08T01:57:02;0.55;;;0.30;;
52208;SDS011;38507;53.132;6.394;2022-12-08T01:59:33;1.33;;;0.40;;
52208;SDS011;38507;53.132;6.394;2022-12-08T02:02:03;2.35;;;0.50;;
52208;SDS011;38507;53.132;6.394;2022-12-08T02:04:28;2.05;;;0.60;;
52208;SDS011;38507;53.132;6.394;2022-12-08T02:06:54;6.88;;;0.70;;
52208;SDS011;38507;53.132;6.394;2022-12-08T02:09:20;3.00;;;0.43;;
52208;SDS011;38507;53.132;6.394;2022-12-08T02:11:46;2.95;;;0.50;;
52208;SDS011;38507;53.132;6.394;2022-12-08T02:14:13;3.55;;;0.55;;
52208;SDS011;38507;53.132;6.394;2022-12-08T02:16:51;3.40;;;0.32;;
52208;SDS011;38507;53.132;6.394;2022-12-08T02:22:26;3.92;;;0.40;;
52208;SDS011;38507;53.132;6.394;2022-12-08T02:25:20;7.15;;;1.05;;
52208;SDS011;38507;53.132;6.394;2022-12-08T02:28:05;1.98;;;0.30;;
52208;SDS011;38507;53.132;6.394;2022-12-08T02:31:07;1.47;;;0.50;;
52208;SDS011;38507;53.132;6.394;2022-12-08T02:33:57;2.53;;;0.40;;
52208;SDS011;38507;53.132;6.394;2022-12-08T02:36:53;3.23;;;0.70;;
52208;SDS011;38507;53.132;6.394;2022-12-08T02:41:49;3.15;;;0.52;;
52208;SDS011;38507;53.132;6.394;2022-12-08T02:44:29;3.53;;;0.43;;
52208;SDS011;38507;53.132;6.394;2022-12-08T02:47:19;1.77;;;0.45;;
52208;SDS011;38507;53.132;6.394;2022-12-08T02:49:47;2.85;;;0.63;;
52208;SDS011;38507;53.132;6.394;2022-12-08T02:54:43;7.82;;;1.02;;
52208;SDS011;38507;53.132;6.394;2022-12-08T03:07:39;4.97;;;0.60;;
52208;SDS011;38507;53.132;6.394;2022-12-08T03:13:13;3.05;;;0.40;;
52208;SDS011;38507;53.132;6.394;2022-12-08T03:15:42;3.17;;;0.70;;
52208;SDS011;38507;53.132;6.394;2022-12-08T03:18:12;1.33;;;0.50;;
52208;SDS011;38507;53.132;6.394;2022-12-08T03:20:40;3.88;;;0.40;;
52208;SDS011;38507;53.132;6.394;2022-12-08T03:23:09;1.35;;;0.30;;
52208;SDS011;38507;53.132;6.394;2022-12-08T03:25:40;3.40;;;0.50;;
52208;SDS011;38507;53.132;6.394;2022-12-08T03:28:09;1.98;;;0.50;;
52208;SDS011;38507;53.132;6.394;2022-12-08T03:30:37;1.13;;;0.52;;
52208;SDS011;38507;53.132;6.394;2022-12-08T03:33:06;1.20;;;0.40;;
52208;SDS011;38507;53.132;6.394;2022-12-08T03:35:38;1.23;;;0.52;;
52208;SDS011;38507;53.132;6.394;2022-12-08T03:38:07;2.60;;;0.40;;
52208;SDS011;38507;53.132;6.394;2022-12-08T03:40:35;3.28;;;0.38;;
52208;SDS011;38507;53.132;6.394;2022-12-08T03:43:01;1.95;;;0.50;;
52208;SDS011;38507;53.132;6.394;2022-12-08T03:45:27;2.05;;;0.40;;
52208;SDS011;38507;53.132;6.394;2022-12-08T03:47:53;2.67;;;0.35;;
52208;SDS011;38507;53.132;6.394;2022-12-08T03:50:19;2.90;;;0.40;;
52208;SDS011;38507;53.132;6.394;2022-12-08T03:52:45;2.63;;;0.45;;
52208;SDS011;38507;53.132;6.394;2022-12-08T03:55:11;5.05;;;0.70;;
52208;SDS011;38507;53.132;6.394;2022-12-08T03:57:36;1.85;;;0.40;;
52208;SDS011;38507;53.132;6.394;2022-12-08T04:00:03;1.30;;;0.35;;
52208;SDS011;38507;53.132;6.394;2022-12-08T04:02:30;0.32;;;0.20;;
52208;SDS011;38507;53.132;6.394;2022-12-08T04:04:56;0.43;;;0.28;;
52208;SDS011;38507;53.132;6.394;2022-12-08T04:07:21;1.00;;;0.20;;
52208;SDS011;38507;53.132;6.394;2022-12-08T04:09:47;0.98;;;0.30;;
52208;SDS011;38507;53.132;6.394;2022-12-08T04:12:13;1.35;;;0.20;;
52208;SDS011;38507;53.132;6.394;2022-12-08T04:14:38;3.30;;;0.30;;
52208;SDS011;38507;53.132;6.394;2022-12-08T04:17:04;2.72;;;0.50;;
52208;SDS011;38507;53.132;6.394;2022-12-08T04:19:29;1.75;;;0.28;;
52208;SDS011;38507;53.132;6.394;2022-12-08T04:21:55;1.38;;;0.30;;
52208;SDS011;38507;53.132;6.394;2022-12-08T04:24:21;1.70;;;0.32;;
52208;SDS011;38507;53.132;6.394;2022-12-08T04:26:46;1.40;;;0.30;;
52208;SDS011;38507;53.132;6.394;2022-12-08T04:29:14;2.70;;;0.30;;
52208;SDS011;38507;53.132;6.394;2022-12-08T04:31:40;0.73;;;0.30;;
52208;SDS011;38507;53.132;6.394;2022-12-08T04:34:06;1.60;;;0.40;;
52208;SDS011;38507;53.132;6.394;2022-12-08T04:36:31;1.40;;;0.40;;
52208;SDS011;38507;53.132;6.394;2022-12-08T04:38:57;1.67;;;0.47;;
52208;SDS011;38507;53.132;6.394;2022-12-08T04:41:22;1.92;;;0.70;;
52208;SDS011;38507;53.132;6.394;2022-12-08T04:43:48;2.28;;;0.60;;
52208;SDS011;38507;53.132;6.394;2022-12-08T04:46:13;3.85;;;0.60;;
52208;SDS011;38507;53.132;6.394;2022-12-08T04:48:39;1.63;;;0.43;;
52208;SDS011;38507;53.132;6.394;2022-12-08T04:51:05;0.98;;;0.30;;
52208;SDS011;38507;53.132;6.394;2022-12-08T04:53:31;0.80;;;0.30;;
52208;SDS011;38507;53.132;6.394;2022-12-08T04:55:57;2.05;;;0.40;;
52208;SDS011;38507;53.132;6.394;2022-12-08T04:58:23;1.80;;;0.30;;
52208;SDS011;38507;53.132;6.394;2022-12-08T05:00:49;2.55;;;0.65;;
52208;SDS011;38507;53.132;6.394;2022-12-08T05:03:14;1.77;;;0.35;;
52208;SDS011;38507;53.132;6.394;2022-12-08T05:05:40;3.70;;;0.40;;
52208;SDS011;38507;53.132;6.394;2022-12-08T05:08:07;2.47;;;0.40;;
52208;SDS011;38507;53.132;6.394;2022-12-08T05:10:34;3.55;;;0.47;;
52208;SDS011;38507;53.132;6.394;2022-12-08T05:13:00;1.65;;;0.32;;
52208;SDS011;38507;53.132;6.394;2022-12-08T05:15:26;2.38;;;0.50;;
52208;SDS011;38507;53.132;6.394;2022-12-08T05:17:52;0.50;;;0.35;;
52208;SDS011;38507;53.132;6.394;2022-12-08T05:20:17;2.88;;;0.30;;
52208;SDS011;38507;53.132;6.394;2022-12-08T05:22:43;3.70;;;0.45;;
52208;SDS011;38507;53.132;6.394;2022-12-08T05:25:09;1.00;;;0.35;;
52208;SDS011;38507;53.132;6.394;2022-12-08T05:27:35;2.53;;;0.40;;
52208;SDS011;38507;53.132;6.394;2022-12-08T05:30:01;2.78;;;0.60;;
52208;SDS011;38507;53.132;6.394;2022-12-08T05:32:27;1.75;;;0.40;;
52208;SDS011;38507;53.132;6.394;2022-12-08T05:34:52;0.60;;;0.30;;
52208;SDS011;38507;53.132;6.394;2022-12-08T05:37:18;2.05;;;0.30;;
52208;SDS011;38507;53.132;6.394;2022-12-08T05:39:43;1.98;;;0.40;;
52208;SDS011;38507;53.132;6.394;2022-12-08T05:42:09;2.42;;;0.40;;
52208;SDS011;38507;53.132;6.394;2022-12-08T05:44:35;1.23;;;0.30;;
52208;SDS011;38507;53.132;6.394;2022-12-08T05:47:00;2.05;;;0.35;;
52208;SDS011;38507;53.132;6.394;2022-12-08T05:49:26;1.98;;;0.40;;
52208;SDS011;38507;53.132;6.394;2022-12-08T05:51:52;1.58;;;0.50;;
52208;SDS011;38507;53.132;6.394;2022-12-08T05:54:17;3.58;;;0.50;;
52208;SDS011;38507;53.132;6.394;2022-12-08T05:56:43;1.52;;;0.30;;
52208;SDS011;38507;53.132;6.394;2022-12-08T05:59:08;3.00;;;0.82;;
52208;SDS011;38507;53.132;6.394;2022-12-08T06:01:37;1.23;;;0.30;;
52208;SDS011;38507;53.132;6.394;2022-12-08T06:04:03;2.78;;;0.30;;
52208;SDS011;38507;53.132;6.394;2022-12-08T06:06:29;0.73;;;0.20;;
52208;SDS011;38507;53.132;6.394;2022-12-08T06:08:55;1.10;;;0.30;;
52208;SDS011;38507;53.132;6.394;2022-12-08T06:11:22;1.40;;;0.30;;
52208;SDS011;38507;53.132;6.394;2022-12-08T06:13:49;2.28;;;0.35;;
52208;SDS011;38507;53.132;6.394;2022-12-08T06:16:15;0.70;;;0.30;;
52208;SDS011;38507;53.132;6.394;2022-12-08T06:18:41;2.90;;;0.50;;
52208;SDS011;38507;53.132;6.394;2022-12-08T06:21:08;2.22;;;0.50;;
52208;SDS011;38507;53.132;6.394;2022-12-08T06:23:36;1.13;;;0.40;;
52208;SDS011;38507;53.132;6.394;2022-12-08T06:26:09;2.63;;;0.40;;
52208;SDS011;38507;53.132;6.394;2022-12-08T06:31:19;0.50;;;0.30;;
52208;SDS011;38507;53.132;6.394;2022-12-08T06:33:46;2.25;;;0.60;;
52208;SDS011;38507;53.132;6.394;2022-12-08T06:36:13;4.50;;;0.45;;
52208;SDS011;38507;53.132;6.394;2022-12-08T06:38:40;2.05;;;0.50;;
52208;SDS011;38507;53.132;6.394;2022-12-08T06:41:06;4.80;;;0.80;;
52208;SDS011;38507;53.132;6.394;2022-12-08T06:43:32;5.05;;;0.88;;
52208;SDS011;38507;53.132;6.394;2022-12-08T06:45:57;4.57;;;1.00;;
52208;SDS011;38507;53.132;6.394;2022-12-08T06:48:24;1.85;;;0.80;;
52208;SDS011;38507;53.132;6.394;2022-12-08T06:50:50;3.08;;;0.90;;
52208;SDS011;38507;53.132;6.394;2022-12-08T06:53:15;3.38;;;0.93;;
52208;SDS011;38507;53.132;6.394;2022-12-08T06:55:51;6.13;;;0.82;;
52208;SDS011;38507;53.132;6.394;2022-12-08T06:58:17;5.85;;;1.10;;
52208;SDS011;38507;53.132;6.394;2022-12-08T07:00:44;3.15;;;0.98;;
52208;SDS011;38507;53.132;6.394;2022-12-08T07:03:10;2.83;;;0.75;;
52208;SDS011;38507;53.132;6.394;2022-12-08T07:05:37;1.88;;;0.93;;
52208;SDS011;38507;53.132;6.394;2022-12-08T07:08:03;3.60;;;0.70;;
52208;SDS011;38507;53.132;6.394;2022-12-08T07:10:31;2.70;;;0.80;;
52208;SDS011;38507;53.132;6.394;2022-12-08T07:12:56;5.95;;;0.73;;
52208;SDS011;38507;53.132;6.394;2022-12-08T07:15:22;5.75;;;1.00;;
52208;SDS011;38507;53.132;6.394;2022-12-08T07:17:48;4.65;;;0.90;;
52208;SDS011;38507;53.132;6.394;2022-12-08T07:20:14;4.13;;;1.05;;
52208;SDS011;38507;53.132;6.394;2022-12-08T07:22:39;4.82;;;0.90;;
52208;SDS011;38507;53.132;6.394;2022-12-08T07:25:05;2.10;;;0.82;;
52208;SDS011;38507;53.132;6.394;2022-12-08T07:27:31;3.95;;;1.10;;
52208;SDS011;38507;53.132;6.394;2022-12-08T07:29:57;2.97;;;1.10;;
52208;SDS011;38507;53.132;6.394;2022-12-08T07:32:23;3.60;;;1.40;;
52208;SDS011;38507;53.132;6.394;2022-12-08T07:34:48;5.72;;;1.23;;
52208;SDS011;38507;53.132;6.394;2022-12-08T07:37:14;3.15;;;1.13;;
52208;SDS011;38507;53.132;6.394;2022-12-08T07:39:40;8.50;;;2.13;;
52208;SDS011;38507;53.132;6.394;2022-12-08T07:42:05;5.60;;;1.80;;
52208;SDS011;38507;53.132;6.394;2022-12-08T07:44:31;8.50;;;1.75;;
52208;SDS011;38507;53.132;6.394;2022-12-08T07:46:56;4.38;;;1.33;;
52208;SDS011;38507;53.132;6.394;2022-12-08T07:49:22;4.65;;;1.25;;
52208;SDS011;38507;53.132;6.394;2022-12-08T07:51:48;3.25;;;1.20;;
52208;SDS011;38507;53.132;6.394;2022-12-08T07:54:13;4.70;;;1.10;;
52208;SDS011;38507;53.132;6.394;2022-12-08T07:56:39;4.38;;;1.25;;
52208;SDS011;38507;53.132;6.394;2022-12-08T07:59:04;3.70;;;1.08;;
52208;SDS011;38507;53.132;6.394;2022-12-08T08:01:31;7.15;;;1.33;;
52208;SDS011;38507;53.132;6.394;2022-12-08T08:03:59;9.45;;;1.40;;
52208;SDS011;38507;53.132;6.394;2022-12-08T08:06:26;5.63;;;1.00;;
52208;SDS011;38507;53.132;6.394;2022-12-08T08:08:52;3.42;;;1.33;;
52208;SDS011;38507;53.132;6.394;2022-12-08T08:11:18;4.10;;;1.30;;
52208;SDS011;38507;53.132;6.394;2022-12-08T08:13:45;5.43;;;1.45;;
52208;SDS011;38507;53.132;6.394;2022-12-08T08:16:11;5.03;;;1.40;;
52208;SDS011;38507;53.132;6.394;2022-12-08T08:18:38;4.20;;;1.55;;
52208;SDS011;38507;53.132;6.394;2022-12-08T08:21:04;4.65;;;1.65;;
52208;SDS011;38507;53.132;6.394;2022-12-08T08:23:30;5.47;;;1.70;;
52208;SDS011;38507;53.132;6.394;2022-12-08T08:26:00;9.38;;;2.05;;
52208;SDS011;38507;53.132;6.394;2022-12-08T08:28:27;9.52;;;1.58;;
52208;SDS011;38507;53.132;6.394;2022-12-08T08:30:53;3.65;;;1.20;;
52208;SDS011;38507;53.132;6.394;2022-12-08T08:33:19;7.68;;;1.90;;
52208;SDS011;38507;53.132;6.394;2022-12-08T08:35:45;4.03;;;1.58;;
52208;SDS011;38507;53.132;6.394;2022-12-08T08:38:11;6.82;;;1.77;;
52208;SDS011;38507;53.132;6.394;2022-12-08T08:40:37;3.50;;;1.50;;
52208;SDS011;38507;53.132;6.394;2022-12-08T08:43:03;4.30;;;1.52;;
52208;SDS011;38507;53.132;6.394;2022-12-08T08:45:30;7.82;;;1.35;;
52208;SDS011;38507;53.132;6.394;2022-12-08T08:47:56;4.70;;;1.40;;
52208;SDS011;38507;53.132;6.394;2022-12-08T08:50:22;4.47;;;1.33;;
52208;SDS011;38507;53.132;6.394;2022-12-08T08:52:48;9.70;;;1.67;;
52208;SDS011;38507;53.132;6.394;2022-12-08T08:55:14;6.03;;;1.50;;
52208;SDS011;38507;53.132;6.394;2022-12-08T08:57:40;7.72;;;1.38;;
52208;SDS011;38507;53.132;6.394;2022-12-08T09:00:05;5.60;;;1.67;;
52208;SDS011;38507;53.132;6.394;2022-12-08T09:02:34;4.82;;;1.30;;
52208;SDS011;38507;53.132;6.394;2022-12-08T09:05:00;3.67;;;1.40;;
52208;SDS011;38507;53.132;6.394;2022-12-08T09:07:26;3.88;;;1.25;;
52208;SDS011;38507;53.132;6.394;2022-12-08T09:09:52;9.50;;;1.55;;
52208;SDS011;38507;53.132;6.394;2022-12-08T09:12:17;2.55;;;1.27;;
52208;SDS011;38507;53.132;6.394;2022-12-08T09:14:43;4.03;;;1.60;;
52208;SDS011;38507;53.132;6.394;2022-12-08T09:17:10;6.85;;;1.55;;
52208;SDS011;38507;53.132;6.394;2022-12-08T09:19:35;10.75;;;1.67;;
52208;SDS011;38507;53.132;6.394;2022-12-08T09:22:01;9.32;;;2.10;;
52208;SDS011;38507;53.132;6.394;2022-12-08T09:24:27;4.75;;;1.58;;
52208;SDS011;38507;53.132;6.394;2022-12-08T09:26:53;8.13;;;1.98;;
52208;SDS011;38507;53.132;6.394;2022-12-08T09:29:18;7.38;;;1.83;;
52208;SDS011;38507;53.132;6.394;2022-12-08T09:31:44;4.45;;;1.20;;
52208;SDS011;38507;53.132;6.394;2022-12-08T09:34:10;6.85;;;1.38;;
52208;SDS011;38507;53.132;6.394;2022-12-08T09:36:36;6.10;;;1.70;;
52208;SDS011;38507;53.132;6.394;2022-12-08T09:39:02;3.28;;;1.30;;
52208;SDS011;38507;53.132;6.394;2022-12-08T09:46:57;6.50;;;1.40;;
52208;SDS011;38507;53.132;6.394;2022-12-08T09:49:30;8.35;;;2.35;;
52208;SDS011;38507;53.132;6.394;2022-12-08T09:52:01;6.00;;;1.50;;
52208;SDS011;38507;53.132;6.394;2022-12-08T09:54:31;7.82;;;1.55;;
52208;SDS011;38507;53.132;6.394;2022-12-08T09:57:00;7.43;;;2.05;;
52208;SDS011;38507;53.132;6.394;2022-12-08T09:59:32;5.20;;;1.90;;
52208;SDS011;38507;53.132;6.394;2022-12-08T10:01:59;11.00;;;2.25;;
52208;SDS011;38507;53.132;6.394;2022-12-08T10:04:29;6.57;;;1.75;;
52208;SDS011;38507;53.132;6.394;2022-12-08T10:12:51;7.00;;;1.50;;
52208;SDS011;38507;53.132;6.394;2022-12-08T10:18:22;5.88;;;1.90;;
52208;SDS011;38507;53.132;6.394;2022-12-08T10:20:51;6.32;;;2.17;;
52208;SDS011;38507;53.132;6.394;2022-12-08T10:23:23;9.52;;;2.38;;
52208;SDS011;38507;53.132;6.394;2022-12-08T10:25:57;9.38;;;2.00;;
52208;SDS011;38507;53.132;6.394;2022-12-08T10:28:27;8.35;;;2.17;;
52208;SDS011;38507;53.132;6.394;2022-12-08T10:30:52;9.93;;;2.35;;
52208;SDS011;38507;53.132;6.394;2022-12-08T10:33:19;5.72;;;2.03;;
52208;SDS011;38507;53.132;6.394;2022-12-08T10:35:52;7.10;;;2.08;;
52208;SDS011;38507;53.132;6.394;2022-12-08T10:38:22;8.18;;;2.10;;
52208;SDS011;38507;53.132;6.394;2022-12-08T10:40:58;7.72;;;2.35;;
52208;SDS011;38507;53.132;6.394;2022-12-08T10:43:37;13.05;;;2.15;;
52208;SDS011;38507;53.132;6.394;2022-12-08T10:48:52;9.82;;;2.15;;
52208;SDS011;38507;53.132;6.394;2022-12-08T10:53:59;10.35;;;1.80;;
52208;SDS011;38507;53.132;6.394;2022-12-08T10:56:28;5.30;;;1.33;;
52208;SDS011;38507;53.132;6.394;2022-12-08T10:59:15;6.65;;;1.70;;
52208;SDS011;38507;53.132;6.394;2022-12-08T11:01:46;9.85;;;1.48;;
52208;SDS011;38507;53.132;6.394;2022-12-08T11:07:05;4.78;;;1.17;;
52208;SDS011;38507;53.132;6.394;2022-12-08T11:09:42;3.92;;;1.20;;
52208;SDS011;38507;53.132;6.394;2022-12-08T11:12:16;7.43;;;1.45;;
52208;SDS011;38507;53.132;6.394;2022-12-08T11:17:16;7.72;;;1.83;;
52208;SDS011;38507;53.132;6.394;2022-12-08T11:27:31;8.27;;;1.33;;
52208;SDS011;38507;53.132;6.394;2022-12-08T11:30:02;4.47;;;1.27;;
52208;SDS011;38507;53.132;6.394;2022-12-08T11:32:38;7.32;;;1.70;;
52208;SDS011;38507;53.132;6.394;2022-12-08T11:35:08;5.70;;;1.52;;
52208;SDS011;38507;53.132;6.394;2022-12-08T11:37:41;11.32;;;1.48;;
52208;SDS011;38507;53.132;6.394;2022-12-08T11:40:19;5.65;;;1.30;;
52208;SDS011;38507;53.132;6.394;2022-12-08T11:45:34;4.82;;;1.30;;
52208;SDS011;38507;53.132;6.394;2022-12-08T11:50:38;5.50;;;1.23;;
52208;SDS011;38507;53.132;6.394;2022-12-08T11:53:07;5.35;;;1.40;;
52208;SDS011;38507;53.132;6.394;2022-12-08T11:55:42;7.85;;;1.33;;
52208;SDS011;38507;53.132;6.394;2022-12-08T11:58:25;6.60;;;1.38;;
52208;SDS011;38507;53.132;6.394;2022-12-08T12:01:02;6.40;;;1.17;;
52208;SDS011;38507;53.132;6.394;2022-12-08T12:03:38;7.40;;;1.60;;
52208;SDS011;38507;53.132;6.394;2022-12-08T12:17:56;3.22;;;1.00;;
52208;SDS011;38507;53.132;6.394;2022-12-08T12:23:03;6.80;;;1.17;;
52208;SDS011;38507;53.132;6.394;2022-12-08T12:25:36;6.45;;;1.20;;
52208;SDS011;38507;53.132;6.394;2022-12-08T12:28:10;5.03;;;1.25;;
52208;SDS011;38507;53.132;6.394;2022-12-08T12:30:51;5.88;;;1.10;;
52208;SDS011;38507;53.132;6.394;2022-12-08T12:33:24;7.53;;;1.20;;
52208;SDS011;38507;53.132;6.394;2022-12-08T12:35:50;5.50;;;1.38;;
52208;SDS011;38507;53.132;6.394;2022-12-08T12:41:06;5.43;;;1.20;;
52208;SDS011;38507;53.132;6.394;2022-12-08T12:43:35;6.10;;;1.27;;
52208;SDS011;38507;53.132;6.394;2022-12-08T12:46:36;7.15;;;1.50;;
52208;SDS011;38507;53.132;6.394;2022-12-08T12:57:14;15.88;;;1.85;;
52208;SDS011;38507;53.132;6.394;2022-12-08T12:59:44;8.68;;;1.95;;
52208;SDS011;38507;53.132;6.394;2022-12-08T13:05:07;5.95;;;1.50;;
52208;SDS011;38507;53.132;6.394;2022-12-08T13:07:55;10.02;;;1.60;;
52208;SDS011;38507;53.132;6.394;2022-12-08T13:10:46;3.13;;;0.95;;
52208;SDS011;38507;53.132;6.394;2022-12-08T13:13:25;6.93;;;1.55;;
52208;SDS011;38507;53.132;6.394;2022-12-08T13:16:13;7.03;;;1.45;;
52208;SDS011;38507;53.132;6.394;2022-12-08T13:18:41;7.68;;;1.40;;
52208;SDS011;38507;53.132;6.394;2022-12-08T13:21:13;5.75;;;1.00;;
52208;SDS011;38507;53.132;6.394;2022-12-08T13:26:42;6.00;;;1.60;;
52208;SDS011;38507;53.132;6.394;2022-12-08T13:29:13;5.40;;;1.20;;
52208;SDS011;38507;53.132;6.394;2022-12-08T13:31:45;4.00;;;0.93;;
52208;SDS011;38507;53.132;6.394;2022-12-08T13:34:17;8.20;;;1.45;;
52208;SDS011;38507;53.132;6.394;2022-12-08T13:36:51;6.20;;;1.08;;
52208;SDS011;38507;53.132;6.394;2022-12-08T13:45:19;8.40;;;1.77;;
52208;SDS011;38507;53.132;6.394;2022-12-08T13:50:21;8.70;;;1.35;;
52208;SDS011;38507;53.132;6.394;2022-12-08T13:52:56;5.03;;;1.80;;
52208;SDS011;38507;53.132;6.394;2022-12-08T13:55:26;8.98;;;1.63;;
52208;SDS011;38507;53.132;6.394;2022-12-08T13:58:04;6.05;;;1.38;;
52208;SDS011;38507;53.132;6.394;2022-12-08T14:00:30;5.80;;;1.90;;
52208;SDS011;38507;53.132;6.394;2022-12-08T14:02:56;5.75;;;1.25;;
52208;SDS011;38507;53.132;6.394;2022-12-08T14:05:24;9.20;;;1.90;;
52208;SDS011;38507;53.132;6.394;2022-12-08T14:07:53;6.63;;;1.60;;
52208;SDS011;38507;53.132;6.394;2022-12-08T14:10:26;4.88;;;1.63;;
52208;SDS011;38507;53.132;6.394;2022-12-08T14:12:55;5.75;;;1.27;;
52208;SDS011;38507;53.132;6.394;2022-12-08T14:15:34;4.13;;;1.40;;
52208;SDS011;38507;53.132;6.394;2022-12-08T14:18:00;6.38;;;1.80;;
52208;SDS011;38507;53.132;6.394;2022-12-08T14:20:29;8.60;;;1.55;;
52208;SDS011;38507;53.132;6.394;2022-12-08T14:22:57;6.88;;;1.67;;
52208;SDS011;38507;53.132;6.394;2022-12-08T14:25:24;5.05;;;1.40;;
52208;SDS011;38507;53.132;6.394;2022-12-08T14:27:57;8.63;;;1.70;;
52208;SDS011;38507;53.132;6.394;2022-12-08T14:30:31;3.78;;;1.30;;
52208;SDS011;38507;53.132;6.394;2022-12-08T14:33:01;7.35;;;1.35;;
52208;SDS011;38507;53.132;6.394;2022-12-08T14:35:32;3.95;;;1.02;;
52208;SDS011;38507;53.132;6.394;2022-12-08T14:37:59;6.00;;;1.50;;
52208;SDS011;38507;53.132;6.394;2022-12-08T14:40:28;5.75;;;1.40;;
52208;SDS011;38507;53.132;6.394;2022-12-08T14:43:11;6.60;;;1.70;;
52208;SDS011;38507;53.132;6.394;2022-12-08T14:48:24;5.07;;;1.25;;
52208;SDS011;38507;53.132;6.394;2022-12-08T14:53:19;3.78;;;1.10;;
52208;SDS011;38507;53.132;6.394;2022-12-08T14:55:45;10.10;;;1.42;;
52208;SDS011;38507;53.132;6.394;2022-12-08T14:58:26;5.32;;;1.60;;
52208;SDS011;38507;53.132;6.394;2022-12-08T15:00:57;6.38;;;1.58;;
52208;SDS011;38507;53.132;6.394;2022-12-08T15:03:27;5.30;;;1.58;;
52208;SDS011;38507;53.132;6.394;2022-12-08T15:05:56;4.60;;;1.20;;
52208;SDS011;38507;53.132;6.394;2022-12-08T15:08:29;7.97;;;1.90;;
52208;SDS011;38507;53.132;6.394;2022-12-08T15:11:11;7.93;;;1.70;;
52208;SDS011;38507;53.132;6.394;2022-12-08T15:13:45;3.75;;;1.25;;
52208;SDS011;38507;53.132;6.394;2022-12-08T15:21:43;5.68;;;1.40;;
52208;SDS011;38507;53.132;6.394;2022-12-08T15:24:12;5.30;;;1.40;;
52208;SDS011;38507;53.132;6.394;2022-12-08T15:26:39;5.85;;;1.52;;
52208;SDS011;38507;53.132;6.394;2022-12-08T15:29:09;7.63;;;1.42;;
52208;SDS011;38507;53.132;6.394;2022-12-08T15:31:37;3.30;;;1.23;;
52208;SDS011;38507;53.132;6.394;2022-12-08T15:34:03;4.80;;;1.35;;
52208;SDS011;38507;53.132;6.394;2022-12-08T15:36:28;4.07;;;1.42;;
52208;SDS011;38507;53.132;6.394;2022-12-08T15:38:54;3.67;;;1.35;;
52208;SDS011;38507;53.132;6.394;2022-12-08T15:41:20;3.88;;;1.27;;
52208;SDS011;38507;53.132;6.394;2022-12-08T15:43:45;6.70;;;1.50;;
52208;SDS011;38507;53.132;6.394;2022-12-08T15:46:11;4.32;;;1.60;;
52208;SDS011;38507;53.132;6.394;2022-12-08T15:48:36;8.85;;;1.88;;
52208;SDS011;38507;53.132;6.394;2022-12-08T15:51:02;6.07;;;1.80;;
52208;SDS011;38507;53.132;6.394;2022-12-08T15:53:28;21.40;;;8.40;;
52208;SDS011;38507;53.132;6.394;2022-12-08T15:55:54;55.50;;;19.35;;
52208;SDS011;38507;53.132;6.394;2022-12-08T15:58:22;65.10;;;21.40;;
52208;SDS011;38507;53.132;6.394;2022-12-08T16:00:49;47.22;;;14.13;;
52208;SDS011;38507;53.132;6.394;2022-12-08T16:03:17;32.75;;;10.88;;
52208;SDS011;38507;53.132;6.394;2022-12-08T16:05:54;34.70;;;9.82;;
52208;SDS011;38507;53.132;6.394;2022-12-08T16:08:21;30.75;;;9.50;;
52208;SDS011;38507;53.132;6.394;2022-12-08T16:10:47;34.08;;;9.85;;
52208;SDS011;38507;53.132;6.394;2022-12-08T16:13:17;34.28;;;10.52;;
52208;SDS011;38507;53.132;6.394;2022-12-08T16:16:04;32.53;;;8.70;;
52208;SDS011;38507;53.132;6.394;2022-12-08T16:18:35;27.98;;;7.57;;
52208;SDS011;38507;53.132;6.394;2022-12-08T16:21:03;29.30;;;8.52;;
52208;SDS011;38507;53.132;6.394;2022-12-08T16:23:29;21.13;;;6.28;;
52208;SDS011;38507;53.132;6.394;2022-12-08T16:25:55;14.13;;;4.15;;
52208;SDS011;38507;53.132;6.394;2022-12-08T16:28:20;9.85;;;3.95;;
52208;SDS011;38507;53.132;6.394;2022-12-08T16:30:46;9.20;;;3.28;;
52208;SDS011;38507;53.132;6.394;2022-12-08T16:33:12;10.02;;;2.83;;
52208;SDS011;38507;53.132;6.394;2022-12-08T16:35:38;7.35;;;2.60;;
52208;SDS011;38507;53.132;6.394;2022-12-08T16:38:05;7.28;;;2.20;;
52208;SDS011;38507;53.132;6.394;2022-12-08T16:40:31;6.43;;;2.33;;
52208;SDS011;38507;53.132;6.394;2022-12-08T16:42:56;6.65;;;2.50;;
52208;SDS011;38507;53.132;6.394;2022-12-08T16:45:23;7.30;;;2.70;;
52208;SDS011;38507;53.132;6.394;2022-12-08T16:47:51;6.55;;;2.60;;
52208;SDS011;38507;53.132;6.394;2022-12-08T16:50:20;7.57;;;2.80;;
52208;SDS011;38507;53.132;6.394;2022-12-08T16:52:48;9.23;;;2.83;;
52208;SDS011;38507;53.132;6.394;2022-12-08T16:55:20;5.68;;;3.20;;